Time;durP1;ratioP1;P1;durP2;ratioP2;P2;SDS_P1;SDS_P2;PMS_P1;PMS_P2;Temp;Humidity;BMP_temperature;BMP_pressure;BME280_temperature;BME280_humidity;BME280_pressure;Samples;Min_cycle;Max_cycle;Signal;HPM_P1;HPM_P2
2023/03/29 00:01:30;;;;;;;7.10;4.55;;;;;;;4.48;99.56;101574.59;5053784;28;20040;-57
2023/03/29 00:03:57;;;;;;;9.60;5.20;;;;;;;4.48;99.56;101571.13;5053381;28;20021;-57
2023/03/29 00:06:22;;;;;;;9.27;5.20;;;;;;;4.49;99.55;101567.81;5053778;28;20549;-57
2023/03/29 00:08:55;;;;;;;10.18;5.82;;;;;;;4.50;99.56;101570.44;5053881;28;20060;-56
2023/03/29 00:11:21;;;;;;;8.68;4.75;;;;;;;4.52;99.47;101565.44;5053491;28;20025;-57
2023/03/29 00:13:47;;;;;;;8.48;4.80;;;;;;;4.53;99.82;101570.69;5053781;28;20024;-57
2023/03/29 00:16:13;;;;;;;10.10;5.07;;;;;;;4.55;99.11;101550.34;5053547;28;20057;-56
2023/03/29 00:18:38;;;;;;;10.15;5.07;;;;;;;4.55;98.95;101548.66;5053102;28;20464;-57
2023/03/29 00:21:04;;;;;;;9.38;5.10;;;;;;;4.56;99.05;101560.66;5053431;28;20040;-57
2023/03/29 00:23:30;;;;;;;8.43;4.80;;;;;;;4.58;98.57;101553.09;5053011;28;20033;-57
2023/03/29 00:25:55;;;;;;;9.85;5.32;;;;;;;4.58;99.01;101548.88;5053333;28;20029;-57
2023/03/29 00:28:21;;;;;;;9.13;5.00;;;;;;;4.58;99.26;101551.44;5053737;28;20028;-57
2023/03/29 00:30:46;;;;;;;9.65;5.18;;;;;;;4.61;98.98;101550.75;5053107;28;20083;-57
2023/03/29 00:33:13;;;;;;;11.50;5.13;;;;;;;4.61;98.67;101533.75;5052901;28;20112;-57
2023/03/29 00:35:39;;;;;;;10.98;5.03;;;;;;;4.63;99.09;101538.94;5053456;28;20468;-57
2023/03/29 00:38:05;;;;;;;8.65;5.18;;;;;;;4.62;99.04;101534.63;5052507;28;20063;-57
2023/03/29 00:40:31;;;;;;;11.00;5.47;;;;;;;4.68;97.49;101544.38;5053322;28;20029;-57
2023/03/29 00:42:57;;;;;;;10.57;5.10;;;;;;;4.68;98.05;101552.03;5053252;28;20025;-57
2023/03/29 00:45:25;;;;;;;8.93;5.30;;;;;;;4.67;98.02;101537.50;5052805;28;20033;-57
2023/03/29 00:47:59;;;;;;;8.10;4.68;;;;;;;4.66;98.51;101538.25;5053027;28;20037;-57
2023/03/29 00:50:30;;;;;;;9.10;4.80;;;;;;;4.67;98.08;101528.16;5053233;28;20033;-57
2023/03/29 00:53:01;;;;;;;9.80;5.00;;;;;;;4.68;99.31;101545.25;5052534;28;20029;-56
2023/03/29 00:55:33;;;;;;;8.60;4.78;;;;;;;4.67;98.69;101528.16;5052813;28;20388;-57
2023/03/29 00:58:01;;;;;;;9.88;4.90;;;;;;;4.68;98.85;101529.06;5053132;28;20032;-57
2023/03/29 01:00:30;;;;;;;;;;;;;;;4.75;98.60;101528.63;5052806;28;20104;-57
2023/03/29 01:02:58;;;;;;;8.57;5.00;;;;;;;4.70;98.47;101512.13;5052451;28;19920;-57
2023/03/29 01:05:36;;;;;;;;;;;;;;;4.77;98.38;101520.28;5053363;28;20373;-57
2023/03/29 01:08:11;;;;;;;10.50;4.93;;;;;;;4.74;98.76;101509.03;5052307;28;19952;-57
2023/03/29 01:10:48;;;;;;;9.52;4.63;;;;;;;4.74;99.14;101514.13;5053006;28;20021;-57
2023/03/29 01:13:26;;;;;;;8.27;4.80;;;;;;;4.76;98.67;101512.53;5052015;28;20500;-57
2023/03/29 01:15:53;;;;;;;10.43;4.95;;;;;;;4.76;99.45;101513.44;5052867;28;20025;-57
2023/03/29 01:18:21;;;;;;;9.55;4.53;;;;;;;4.77;99.41;101510.06;5052740;28;20025;-57
2023/03/29 01:21:08;;;;;;;9.07;4.88;;;;;;;4.79;100.00;101512.75;5052508;28;20108;-57
2023/03/29 01:23:37;;;;;;;9.05;4.55;;;;;;;4.79;100.00;101497.44;5052555;28;20032;-57
2023/03/29 01:26:24;;;;;;;10.88;5.32;;;;;;;4.78;100.00;101500.75;5052682;28;20067;-57
2023/03/29 01:28:58;;;;;;;8.07;4.90;;;;;;;4.82;100.00;101504.41;5051887;28;20032;-56
2023/03/29 01:31:35;;;;;;;10.80;5.40;;;;;;;4.80;100.00;101499.16;5052742;28;20079;-57
2023/03/29 01:34:09;;;;;;;10.73;5.25;;;;;;;4.80;100.00;101488.94;5051848;28;20021;-57
2023/03/29 01:36:43;;;;;;;9.55;5.28;;;;;;;4.82;100.00;101494.19;5052559;28;20051;-56
2023/03/29 01:39:09;;;;;;;11.05;5.00;;;;;;;4.82;100.00;101482.28;5052362;28;20425;-57
2023/03/29 01:41:52;;;;;;;8.68;5.40;;;;;;;4.82;100.00;101481.41;5052130;28;20502;-57
2023/03/29 01:44:24;;;;;;;8.93;4.78;;;;;;;4.82;100.00;101472.06;5052137;28;20079;-57
2023/03/29 01:46:59;;;;;;;10.88;5.80;;;;;;;4.82;100.00;101479.72;5052529;28;20118;-57
2023/03/29 01:49:33;;;;;;;11.15;5.20;;;;;;;4.81;100.00;101470.28;5052128;28;20126;-57
2023/03/29 01:52:05;;;;;;;10.23;5.63;;;;;;;4.79;100.00;101477.00;5052040;28;20049;-57
2023/03/29 01:55:00;;;;;;;12.30;5.63;;;;;;;4.80;100.00;101467.66;5052464;28;20383;-57
2023/03/29 01:57:26;;;;;;;10.85;5.40;;;;;;;4.80;100.00;101463.41;5052562;28;20040;-57
2023/03/29 01:59:54;;;;;;;10.70;5.18;;;;;;;4.78;100.00;101462.47;5055414;28;20028;-57
2023/03/29 02:02:23;;;;;;;11.23;5.95;;;;;;;4.78;100.00;101459.91;5055720;28;20049;-57
2023/03/29 02:04:52;;;;;;;13.80;5.45;;;;;;;4.77;100.00;101460.69;5056368;28;20057;-57
2023/03/29 02:07:23;;;;;;;16.92;6.05;;;;;;;4.75;100.00;101459.69;5056009;28;20035;-58
2023/03/29 02:09:51;;;;;;;10.88;5.88;;;;;;;4.73;100.00;101458.72;5055951;28;20032;-57
2023/03/29 02:12:17;;;;;;;10.63;5.43;;;;;;;4.70;100.00;101451.75;5055789;28;20044;-57
2023/03/29 02:14:42;;;;;;;10.05;5.25;;;;;;;4.68;100.00;101447.34;5056295;28;20473;-57
2023/03/29 02:17:18;;;;;;;10.40;5.45;;;;;;;4.66;100.00;101448.91;5055369;28;20413;-57
2023/03/29 02:19:50;;;;;;;11.77;6.15;;;;;;;4.63;100.00;101438.50;5055876;28;20055;-57
2023/03/29 02:22:23;;;;;;;11.00;5.72;;;;;;;4.63;100.00;101434.28;5055911;28;20032;-57
2023/03/29 02:24:53;;;;;;;12.48;5.78;;;;;;;4.65;100.00;101436.91;5055668;28;20025;-57
2023/03/29 02:27:19;;;;;;;11.52;6.07;;;;;;;4.65;100.00;101429.25;5055798;28;20029;-57
2023/03/29 02:29:46;;;;;;;8.82;6.00;;;;;;;4.67;100.00;101420.03;5055860;28;20025;-57
2023/03/29 02:32:19;;;;;;;10.52;5.75;;;;;;;4.67;100.00;101422.59;5054922;28;20036;-57
2023/03/29 02:34:57;;;;;;;14.23;5.70;;;;;;;4.67;100.00;101414.94;5055899;28;20025;-57
2023/03/29 02:37:25;;;;;;;;;;;;;;;4.73;100.00;101415.31;5055910;28;20021;-57
2023/03/29 02:39:52;;;;;;;13.07;6.05;;;;;;;4.71;100.00;101406.66;5055563;28;19916;-57
2023/03/29 02:42:19;;;;;;;11.77;5.57;;;;;;;4.74;100.00;101407.75;5055437;28;20039;-57
2023/03/29 02:44:48;;;;;;;10.85;5.60;;;;;;;4.75;100.00;101408.63;5055030;28;20465;-57
2023/03/29 02:47:21;;;;;;;9.73;5.85;;;;;;;4.78;100.00;101409.69;5055139;28;20151;-57
2023/03/29 02:49:46;;;;;;;11.73;6.00;;;;;;;4.81;100.00;101400.47;5055669;28;20029;-57
2023/03/29 02:52:16;;;;;;;12.95;6.20;;;;;;;4.85;100.00;101395.63;5054611;28;20028;-56
2023/03/29 02:54:46;;;;;;;12.23;5.47;;;;;;;4.89;100.00;101395.06;5055493;28;20025;-57
2023/03/29 02:57:12;;;;;;;12.52;5.43;;;;;;;4.94;100.00;101388.56;5055083;28;20029;-57
2023/03/29 02:59:39;;;;;;;12.75;5.63;;;;;;;4.98;100.00;101391.28;5054787;28;20032;-57
2023/03/29 03:02:05;;;;;;;11.75;5.68;;;;;;;5.02;100.00;101383.00;5054570;28;20098;-57
2023/03/29 03:04:32;;;;;;;9.68;5.03;;;;;;;5.07;100.00;101389.28;5055438;28;20423;-57
2023/03/29 03:06:58;;;;;;;8.32;5.50;;;;;;;5.11;100.00;101391.22;5054456;28;20047;-57
2023/03/29 03:09:23;;;;;;;12.30;5.05;;;;;;;5.15;100.00;101384.63;5054770;28;20032;-57
2023/03/29 03:11:48;;;;;;;12.38;6.18;;;;;;;5.18;100.00;101390.81;5053991;28;20021;-57
2023/03/29 03:14:15;;;;;;;9.88;5.30;;;;;;;5.22;100.00;101385.09;5053983;28;20120;-57
2023/03/29 03:16:41;;;;;;;9.95;5.25;;;;;;;5.25;100.00;101384.41;5055143;28;20023;-56
2023/03/29 03:19:07;;;;;;;10.52;5.25;;;;;;;5.26;99.29;101371.69;5054610;28;20048;-57
2023/03/29 03:21:33;;;;;;;11.25;5.13;;;;;;;5.33;98.21;101377.19;5054363;28;20072;-56
2023/03/29 03:23:59;;;;;;;11.93;4.73;;;;;;;5.35;97.70;101380.72;5054693;28;20025;-57
2023/03/29 03:26:28;;;;;;;9.45;4.72;;;;;;;5.38;97.10;101371.53;5054423;28;20025;-57
2023/03/29 03:28:55;;;;;;;10.38;5.10;;;;;;;5.40;97.19;101369.09;5054218;28;20155;-57
2023/03/29 03:31:20;;;;;;;8.45;4.93;;;;;;;5.42;96.65;101364.94;5054867;28;20021;-56
2023/03/29 03:33:45;;;;;;;10.73;4.68;;;;;;;5.42;97.06;101368.41;5054293;28;20074;-57
2023/03/29 03:36:12;;;;;;;10.20;4.70;;;;;;;5.43;97.31;101366.72;5054321;28;20018;-57
2023/03/29 03:38:38;;;;;;;14.43;5.27;;;;;;;5.44;96.56;101366.78;5054788;28;20021;-57
2023/03/29 03:41:05;;;;;;;10.25;4.78;;;;;;;5.45;96.20;101370.25;5053635;28;20302;-57
2023/03/29 03:43:31;;;;;;;12.60;4.70;;;;;;;5.45;96.09;101365.16;5054355;28;20040;-57
2023/03/29 03:45:56;;;;;;;8.43;4.65;;;;;;;5.46;95.90;101372.00;5054310;28;20369;-57
2023/03/29 03:48:23;;;;;;;9.20;4.65;;;;;;;5.49;96.07;101376.41;5054050;28;20025;-57
2023/03/29 03:50:53;;;;;;;7.88;4.68;;;;;;;5.48;96.54;101365.31;5054286;28;20017;-57
2023/03/29 03:53:19;;;;;;;8.98;4.97;;;;;;;5.50;95.56;101368.84;5054209;28;20031;-57
2023/03/29 03:55:51;;;;;;;9.55;4.63;;;;;;;5.51;95.70;101377.38;5053748;28;20021;-57
2023/03/29 03:58:17;;;;;;;7.45;4.25;;;;;;;5.51;95.75;101364.59;5053852;28;20036;-57
2023/03/29 04:00:44;;;;;;;7.82;4.45;;;;;;;5.52;95.24;101366.38;5054111;28;20045;-57
2023/03/29 04:03:09;;;;;;;9.57;4.40;;;;;;;5.54;94.88;101368.22;5053573;28;20036;-57
2023/03/29 04:05:39;;;;;;;8.73;4.53;;;;;;;5.54;95.03;101369.88;5054064;28;20376;-57
2023/03/29 04:08:05;;;;;;;10.88;4.88;;;;;;;5.53;95.14;101363.03;5053721;28;20033;-57
2023/03/29 04:10:32;;;;;;;9.07;4.72;;;;;;;5.53;95.14;101363.03;5053162;28;20551;-57
2023/03/29 04:13:01;;;;;;;12.02;4.70;;;;;;;5.56;94.04;101360.66;5053909;28;20021;-57
2023/03/29 04:15:27;;;;;;;8.48;4.70;;;;;;;5.56;94.17;101358.97;5053534;28;20049;-57
2023/03/29 04:17:54;;;;;;;8.13;4.28;;;;;;;5.55;94.55;101357.22;5053474;28;20525;-57
2023/03/29 04:20:20;;;;;;;10.10;4.90;;;;;;;5.57;93.87;101354.75;5053956;28;20056;-57
2023/03/29 04:22:46;;;;;;;14.45;4.60;;;;;;;5.58;93.96;101351.41;5052817;28;20053;-56
2023/03/29 04:25:11;;;;;;;11.50;5.18;;;;;;;5.60;93.75;101350.69;5053341;28;20108;-56
2023/03/29 04:27:36;;;;;;;13.23;4.72;;;;;;;5.60;94.02;101350.69;5053940;28;20059;-56
2023/03/29 04:30:03;;;;;;;10.27;4.70;;;;;;;5.62;93.98;101348.22;5052748;28;20108;-56
2023/03/29 04:32:28;;;;;;;9.82;4.72;;;;;;;5.63;93.90;101338.88;5053319;28;20469;-57
2023/03/29 04:34:54;;;;;;;11.85;5.00;;;;;;;5.66;93.45;101349.28;5053405;28;20021;-57
2023/03/29 04:37:21;;;;;;;11.48;4.72;;;;;;;5.68;92.76;101342.56;5052786;28;20032;-56
2023/03/29 04:39:48;;;;;;;8.10;5.27;;;;;;;5.73;92.84;101346.28;5053497;28;20025;-57
2023/03/29 04:42:13;;;;;;;12.37;4.73;;;;;;;5.77;92.47;101337.97;5053195;28;20591;-57
2023/03/29 04:44:40;;;;;;;10.43;4.80;;;;;;;5.77;92.91;101337.97;5053089;28;20116;-57
2023/03/29 04:47:05;;;;;;;8.60;5.20;;;;;;;5.81;92.25;101342.50;5052957;28;20017;-57
2023/03/29 04:49:31;;;;;;;8.60;4.63;;;;;;;5.82;92.27;101340.81;5053290;28;20036;-57
2023/03/29 04:51:56;;;;;;;10.18;5.28;;;;;;;5.84;93.24;101346.91;5052386;28;20362;-57
2023/03/29 04:54:21;;;;;;;13.38;5.43;;;;;;;5.84;92.34;101345.22;5053170;28;20287;-57
2023/03/29 04:56:47;;;;;;;11.43;5.30;;;;;;;5.85;92.34;101336.75;5053144;28;20055;-57
2023/03/29 04:59:12;;;;;;;12.13;5.45;;;;;;;5.87;92.45;101330.03;5052417;28;20159;-57
2023/03/29 05:01:38;;;;;;;14.00;5.45;;;;;;;5.89;92.07;101327.56;5052697;28;20117;-57
2023/03/29 05:04:03;;;;;;;8.32;4.90;;;;;;;5.91;92.17;101326.88;5052823;28;20103;-57
2023/03/29 05:06:29;;;;;;;10.23;5.20;;;;;;;5.92;92.29;101326.03;5052188;28;20043;-56
2023/03/29 05:08:55;;;;;;;12.63;4.90;;;;;;;5.94;92.76;101321.91;5052515;28;20036;-57
2023/03/29 05:11:23;;;;;;;9.88;5.10;;;;;;;5.98;92.37;101324.63;5053467;28;20033;-57
2023/03/29 05:13:48;;;;;;;10.30;5.38;;;;;;;5.98;92.63;101323.00;5052209;28;20056;-57
2023/03/29 05:16:14;;;;;;;12.15;5.78;;;;;;;5.99;92.85;101323.88;5052548;28;20126;-57
2023/03/29 05:18:40;;;;;;;11.52;5.32;;;;;;;6.01;92.52;101324.84;5052737;28;20044;-57
2023/03/29 05:21:06;;;;;;;14.05;5.68;;;;;;;6.01;92.61;101318.03;5051959;28;20086;-57
2023/03/29 05:23:31;;;;;;;10.20;5.10;;;;;;;6.01;93.41;101317.19;5052689;28;20024;-57
2023/03/29 05:25:57;;;;;;;9.82;5.55;;;;;;;6.01;93.13;101312.94;5052020;28;20071;-57
2023/03/29 05:28:23;;;;;;;11.38;5.70;;;;;;;6.04;93.15;101322.44;5052487;28;20098;-57
2023/03/29 05:30:58;;;;;;;11.23;5.88;;;;;;;6.05;93.12;101330.22;5052973;28;20068;-57
2023/03/29 05:33:24;;;;;;;10.32;5.47;;;;;;;6.08;92.65;101329.50;5051503;28;20067;-57
2023/03/29 05:35:58;;;;;;;14.02;5.80;;;;;;;6.12;92.85;101340.78;5052360;28;20041;-57
2023/03/29 05:38:24;;;;;;;10.80;5.53;;;;;;;6.15;93.03;101341.84;5052790;28;20024;-57
2023/03/29 05:40:50;;;;;;;10.50;5.97;;;;;;;6.17;93.08;101332.59;5052357;28;20502;-57
2023/03/29 05:43:15;;;;;;;12.75;5.47;;;;;;;6.22;92.79;101333.72;5052318;28;20047;-57
2023/03/29 05:45:41;;;;;;;12.75;5.88;;;;;;;6.23;93.07;101330.34;5052655;28;20480;-57
2023/03/29 05:48:06;;;;;;;13.60;5.75;;;;;;;6.27;92.96;101331.41;5051735;28;20421;-57
2023/03/29 05:50:31;;;;;;;14.25;5.57;;;;;;;6.31;92.76;101333.31;5052172;28;20036;-57
2023/03/29 05:52:57;;;;;;;10.13;5.53;;;;;;;6.36;92.89;101333.59;5052424;28;20020;-57
2023/03/29 05:55:22;;;;;;;11.20;5.60;;;;;;;6.38;92.92;101330.31;5051971;28;20028;-57
2023/03/29 05:57:47;;;;;;;10.95;5.55;;;;;;;6.43;92.29;101335.69;5052244;28;20033;-57
2023/03/29 06:00:22;;;;;;;10.93;5.50;;;;;;;6.45;92.75;101341.75;5052177;28;20035;-57
2023/03/29 06:02:57;;;;;;;10.95;5.20;;;;;;;6.48;92.84;101344.50;5051675;28;20033;-57
2023/03/29 06:05:22;;;;;;;12.27;5.45;;;;;;;6.52;92.73;101343.88;5052640;28;20021;-57
2023/03/29 06:07:48;;;;;;;12.18;5.65;;;;;;;6.55;92.70;101345.72;5052600;28;20031;-57
2023/03/29 06:10:14;;;;;;;13.70;6.30;;;;;;;6.57;92.32;101337.31;5051330;28;20547;-57
2023/03/29 06:12:40;;;;;;;11.30;5.80;;;;;;;6.60;92.57;101346.84;5052332;28;20488;-56
2023/03/29 06:15:07;;;;;;;15.10;5.78;;;;;;;6.64;92.41;101342.78;5051372;28;20021;-57
2023/03/29 06:17:33;;;;;;;12.85;6.20;;;;;;;6.65;92.54;101334.25;5051897;28;20404;-57
2023/03/29 06:19:59;;;;;;;12.32;5.97;;;;;;;6.67;92.84;101342.94;5052146;28;20056;-57
2023/03/29 06:22:24;;;;;;;12.82;6.35;;;;;;;6.68;92.86;101337.00;5051781;28;20051;-57
2023/03/29 06:24:50;;;;;;;15.05;6.13;;;;;;;6.71;92.26;101340.63;5052122;28;20021;-57
2023/03/29 06:27:15;;;;;;;14.80;6.32;;;;;;;6.74;92.69;101345.03;5051828;28;20021;-57
2023/03/29 06:29:40;;;;;;;12.95;5.75;;;;;;;6.77;92.55;101347.75;5051512;28;20033;-57
2023/03/29 06:32:06;;;;;;;13.30;6.05;;;;;;;6.80;92.56;101347.88;5051557;28;20036;-57
2023/03/29 06:34:31;;;;;;;12.60;6.15;;;;;;;6.80;92.98;101344.47;5052229;28;20116;-57
2023/03/29 06:36:56;;;;;;;10.95;6.28;;;;;;;6.82;93.50;101346.31;5051353;28;20078;-56
2023/03/29 06:39:22;;;;;;;14.82;7.22;;;;;;;6.85;92.99;101337.91;5052059;28;20017;-55
2023/03/29 06:41:47;;;;;;;13.40;6.13;;;;;;;6.89;93.11;101335.59;5052230;28;20043;-57
2023/03/29 06:44:16;;;;;;;11.57;6.07;;;;;;;6.93;93.14;101339.16;5051180;28;20061;-57
2023/03/29 06:46:41;;;;;;;14.45;6.28;;;;;;;6.97;93.52;101335.09;5055278;28;20021;-57
2023/03/29 06:49:06;;;;;;;14.10;6.57;;;;;;;7.02;93.66;101331.09;5055347;28;20037;-57
2023/03/29 06:51:32;;;;;;;13.20;6.38;;;;;;;7.09;92.44;101335.75;5055070;28;20025;-56
2023/03/29 06:53:57;;;;;;;11.57;6.50;;;;;;;7.14;92.97;101339.41;5054988;28;20040;-58
2023/03/29 06:56:22;;;;;;;12.50;6.05;;;;;;;7.19;93.18;101340.53;5055551;28;20060;-57
2023/03/29 06:58:48;;;;;;;12.93;6.78;;;;;;;7.30;93.45;101347.91;5054534;28;20025;-57
2023/03/29 07:01:13;;;;;;;11.27;6.28;;;;;;;7.36;92.76;101345.63;5054723;28;20496;-57
2023/03/29 07:03:40;;;;;;;17.70;6.43;;;;;;;7.41;92.39;101342.50;5055549;28;20376;-57
2023/03/29 07:06:08;;;;;;;17.38;6.32;;;;;;;7.46;92.26;101347.84;5054332;28;20071;-57
2023/03/29 07:08:45;;;;;;;15.85;6.82;;;;;;;7.52;92.92;101348.16;5055167;28;20025;-56
2023/03/29 07:11:12;;;;;;;13.53;6.60;;;;;;;7.54;92.71;101351.69;5054865;28;20427;-52
2023/03/29 07:13:40;;;;;;;13.13;6.75;;;;;;;7.56;93.08;101359.47;5054492;28;20025;-53
2023/03/29 07:16:06;;;;;;;12.57;5.95;;;;;;;7.57;92.68;101349.25;5054733;28;20032;-51
2023/03/29 07:18:31;;;;;;;14.00;6.45;;;;;;;7.61;92.89;101352.00;5054606;28;20037;-52
2023/03/29 07:20:57;;;;;;;14.70;7.03;;;;;;;7.61;92.63;101344.31;5054550;28;20032;-52
2023/03/29 07:23:22;;;;;;;15.20;6.68;;;;;;;7.63;93.29;101348.72;5055053;28;20108;-52
2023/03/29 07:25:47;;;;;;;15.10;7.20;;;;;;;7.67;93.21;101354.84;5054389;28;20021;-53
2023/03/29 07:28:13;;;;;;;15.85;6.80;;;;;;;7.70;93.24;101357.59;5054174;28;20036;-53
2023/03/29 07:30:38;;;;;;;14.63;7.03;;;;;;;7.72;93.27;101354.28;5054996;28;20428;-53
2023/03/29 07:33:03;;;;;;;11.05;6.18;;;;;;;7.75;93.50;101358.69;5054041;28;20083;-53
2023/03/29 07:35:29;;;;;;;13.68;6.80;;;;;;;7.75;93.81;101368.94;5054709;28;20433;-50
2023/03/29 07:37:55;;;;;;;15.10;6.53;;;;;;;7.78;93.32;101373.34;5054331;28;20028;-52
2023/03/29 07:40:24;;;;;;;16.33;6.88;;;;;;;7.82;93.25;101372.69;5054151;28;20503;-53
2023/03/29 07:42:55;;;;;;;15.95;7.22;;;;;;;7.85;93.30;101376.31;5054161;28;20387;-51
2023/03/29 07:45:23;;;;;;;13.68;6.72;;;;;;;7.87;93.61;101384.06;5054679;28;20017;-52
2023/03/29 07:47:52;;;;;;;13.65;7.25;;;;;;;7.91;93.33;101386.88;5053888;28;20040;-53
2023/03/29 07:50:18;;;;;;;11.63;6.85;;;;;;;7.94;93.64;101380.13;5054168;28;20025;-50
2023/03/29 07:52:44;;;;;;;14.07;7.07;;;;;;;7.96;94.26;101381.09;5054457;28;20028;-50
2023/03/29 07:55:11;;;;;;;16.98;7.18;;;;;;;7.99;93.98;101381.22;5053768;28;20032;-49
2023/03/29 07:57:37;;;;;;;14.13;6.63;;;;;;;7.99;94.28;101379.56;5053620;28;20082;-51
2023/03/29 08:00:16;;;;;;;16.42;7.28;;;;;;;8.01;94.44;101382.19;5053770;28;20468;-52
2023/03/29 08:02:48;;;;;;;14.95;7.38;;;;;;;8.01;95.15;101382.19;5053289;28;20049;-51
2023/03/29 08:05:14;;;;;;;14.45;7.78;;;;;;;8.02;96.08;101378.81;5053796;28;20029;-52
2023/03/29 08:07:41;;;;;;;17.55;7.43;;;;;;;8.03;96.86;101380.56;5053430;28;20021;-52
2023/03/29 08:10:16;;;;;;;16.50;8.20;;;;;;;8.04;98.07;101382.31;5053391;28;20391;-48
2023/03/29 08:12:44;;;;;;;15.00;7.95;;;;;;;8.06;99.78;101368.75;5054053;28;20136;-51
2023/03/29 08:15:10;;;;;;;17.00;7.70;;;;;;;8.10;100.00;101380.06;5053293;28;20025;-52
2023/03/29 08:17:36;;;;;;;18.00;8.38;;;;;;;8.10;100.00;101377.50;5053764;28;20039;-50
2023/03/29 08:20:04;;;;;;;17.58;8.73;;;;;;;8.16;100.00;101380.34;5053520;28;20111;-52
2023/03/29 08:22:31;;;;;;;18.25;7.63;;;;;;;8.18;100.00;101390.69;5053269;28;20029;-52
2023/03/29 08:24:56;;;;;;;17.10;8.55;;;;;;;8.22;100.00;101387.47;5053244;28;20025;-49
2023/03/29 08:27:22;;;;;;;15.38;8.40;;;;;;;8.16;100.00;101382.94;5053672;28;20031;-52
2023/03/29 08:29:47;;;;;;;14.27;8.85;;;;;;;8.18;100.00;101370.16;5053147;28;20476;-52
2023/03/29 08:32:13;;;;;;;16.42;8.30;;;;;;;8.23;100.00;101361.84;5053140;28;20608;-52
2023/03/29 08:34:38;;;;;;;15.98;8.52;;;;;;;8.32;100.00;101363.13;5053535;28;20021;-53
2023/03/29 08:37:03;;;;;;;17.27;8.95;;;;;;;8.42;100.00;101360.16;5052264;28;20032;-55
2023/03/29 08:39:30;;;;;;;16.17;8.57;;;;;;;8.40;100.00;101352.41;5053642;28;20511;-50
2023/03/29 08:42:07;;;;;;;17.50;9.18;;;;;;;8.55;100.00;101356.50;5052989;28;20075;-53
2023/03/29 08:44:53;;;;;;;19.58;8.68;;;;;;;8.72;100.00;101354.69;5052864;28;20064;-52
2023/03/29 08:47:28;;;;;;;14.85;8.23;;;;;;;8.84;100.00;101360.38;5053083;28;20465;-52
2023/03/29 08:49:55;;;;;;;17.75;9.38;;;;;;;9.02;100.00;101364.59;5052679;28;20055;-49
2023/03/29 08:52:35;;;;;;;20.60;9.07;;;;;;;9.11;100.00;101365.00;5053157;28;20028;-52
2023/03/29 08:55:05;;;;;;;18.58;9.45;;;;;;;9.12;99.49;101364.19;5053023;28;20275;-52
2023/03/29 08:57:40;;;;;;;17.48;9.20;;;;;;;9.18;99.36;101355.84;5052506;28;20436;-51
2023/03/29 09:00:09;;;;;;;17.92;9.73;;;;;;;9.26;99.81;101353.59;5052505;28;20029;-52
2023/03/29 09:02:36;;;;;;;20.48;9.52;;;;;;;9.31;99.81;101353.00;5052857;28;20048;-51
2023/03/29 09:05:16;;;;;;;17.27;9.30;;;;;;;9.42;99.24;101355.16;5052175;28;20029;-52
2023/03/29 09:07:42;;;;;;;19.50;9.50;;;;;;;9.62;99.14;101355.97;5052700;28;20033;-49
2023/03/29 09:10:14;;;;;;;19.63;9.70;;;;;;;9.77;98.49;101356.63;5052040;28;20487;-52
2023/03/29 09:12:57;;;;;;;17.33;9.10;;;;;;;9.73;98.65;101357.31;5052359;28;20052;-52
2023/03/29 09:16:16;;;;;;;19.73;9.77;;;;;;;9.85;98.39;101354.34;5053193;28;20087;-48
2023/03/29 09:18:51;;;;;;;20.63;9.55;;;;;;;9.79;98.54;101356.69;5030267;28;20038;-48
2023/03/29 09:21:45;;;;;;;21.70;9.63;;;;;;;9.84;98.77;101350.91;5052005;28;20040;-52
2023/03/29 09:24:28;;;;;;;24.48;10.20;;;;;;;9.81;98.99;101368.81;5047429;28;20037;-53
2023/03/29 09:27:01;;;;;;;19.80;10.40;;;;;;;9.83;98.37;101366.31;5051745;28;20376;-52
2023/03/29 09:29:39;;;;;;;18.70;9.88;;;;;;;9.81;98.79;101361.09;5052776;28;20056;-51
2023/03/29 09:32:16;;;;;;;20.20;10.73;;;;;;;9.91;98.66;101359.75;5052098;28;20111;-51
2023/03/29 09:35:10;;;;;;;19.35;9.52;;;;;;;9.98;98.62;101360.88;5052707;28;20017;-53
2023/03/29 09:37:38;;;;;;;20.85;10.73;;;;;;;9.80;99.14;101354.19;5048527;28;20120;-52
2023/03/29 09:40:11;;;;;;;20.30;10.38;;;;;;;9.59;99.95;101355.88;5051696;28;20029;-52
2023/03/29 09:42:38;;;;;;;18.67;10.85;;;;;;;9.56;100.00;101370.34;5052657;28;20025;-52
2023/03/29 09:45:07;;;;;;;21.50;10.70;;;;;;;9.49;100.00;101364.88;5052292;28;20377;-52
2023/03/29 09:47:39;;;;;;;19.95;10.93;;;;;;;9.39;100.00;101361.06;5051853;28;20025;-51
2023/03/29 09:50:29;;;;;;;22.88;11.38;;;;;;;9.22;100.00;101360.34;5052020;28;20501;-51
2023/03/29 09:52:55;;;;;;;21.00;11.65;;;;;;;9.17;100.00;101362.69;5052422;28;20107;-52
2023/03/29 09:55:26;;;;;;;24.77;11.63;;;;;;;9.13;100.00;101353.09;5051696;28;20449;-52
2023/03/29 09:57:51;;;;;;;26.33;12.73;;;;;;;9.03;100.00;101361.22;5052465;28;20059;-53
2023/03/29 10:00:17;;;;;;;28.70;13.50;;;;;;;9.02;100.00;101364.59;5051670;28;20108;-52
2023/03/29 10:02:55;;;;;;;23.58;13.30;;;;;;;9.16;100.00;101368.66;5051961;28;20041;-52
2023/03/29 10:05:24;;;;;;;22.38;13.48;;;;;;;9.17;100.00;101365.25;5052583;28;20025;-53
2023/03/29 10:07:53;;;;;;;21.38;13.13;;;;;;;9.25;100.00;101363.03;5051927;28;20057;-51
2023/03/29 10:10:31;;;;;;;27.55;13.68;;;;;;;9.30;100.00;101371.81;5051994;28;20044;-53
2023/03/29 10:13:03;;;;;;;22.80;12.80;;;;;;;9.28;100.00;101358.00;5051952;28;20114;-52
2023/03/29 10:15:29;;;;;;;21.80;12.70;;;;;;;9.22;100.00;101358.63;5051475;28;20385;-53
2023/03/29 10:18:02;;;;;;;21.13;12.45;;;;;;;9.24;100.00;101361.25;5052052;28;20032;-51
2023/03/29 10:20:28;;;;;;;21.35;13.30;;;;;;;9.21;100.00;101354.28;5054413;28;20017;-49
2023/03/29 10:22:55;;;;;;;21.65;13.52;;;;;;;9.21;100.00;101351.72;5055298;28;20366;-52
2023/03/29 10:25:26;;;;;;;30.02;14.70;;;;;;;9.23;100.00;101355.25;5055946;28;20128;-52
2023/03/29 10:28:12;;;;;;;28.48;14.45;;;;;;;9.20;100.00;101355.09;5056295;28;20032;-52
2023/03/29 10:30:38;;;;;;;25.30;14.43;;;;;;;9.14;100.00;101344.56;5055792;28;20029;-52
2023/03/29 10:33:06;;;;;;;22.05;14.32;;;;;;;9.18;100.00;101346.47;5055764;28;20086;-51
2023/03/29 10:35:33;;;;;;;23.50;14.85;;;;;;;9.25;100.00;101341.59;5055486;28;20025;-52
2023/03/29 10:38:03;;;;;;;24.05;14.50;;;;;;;9.22;100.00;101339.75;5055113;28;20079;-52
2023/03/29 10:40:32;;;;;;;31.70;14.43;;;;;;;9.34;100.00;101337.69;5055855;28;20028;-52
2023/03/29 10:43:00;;;;;;;26.67;15.10;;;;;;;9.43;100.00;101338.91;5054888;28;20086;-51
2023/03/29 10:45:30;;;;;;;;;;;;;;;9.58;100.00;101338.66;5055916;28;20061;-52
2023/03/29 10:47:57;;;;;;;23.77;14.50;;;;;;;10.02;100.00;101327.59;5055269;28;19923;-51
2023/03/29 10:50:24;;;;;;;20.77;12.95;;;;;;;10.36;100.00;101323.78;5054679;28;20025;-50
2023/03/29 10:52:49;;;;;;;25.23;13.40;;;;;;;10.89;100.00;101317.97;5055684;28;20099;-51
2023/03/29 10:55:15;;;;;;;21.50;11.65;;;;;;;11.09;100.00;101317.78;5055359;28;20439;-52
2023/03/29 10:58:03;;;;;;;17.85;11.05;;;;;;;11.15;100.00;101310.28;5054733;28;20029;-52
2023/03/29 11:00:52;;;;;;;20.25;11.55;;;;;;;11.53;100.00;101292.66;5055010;28;20380;-52
2023/03/29 11:03:39;;;;;;;22.42;11.35;;;;;;;12.28;97.91;101295.84;5054927;28;20120;-52
2023/03/29 11:06:16;;;;;;;20.10;10.80;;;;;;;12.72;94.09;101292.78;5054894;28;20033;-51
2023/03/29 11:09:11;;;;;;;17.65;10.10;;;;;;;12.65;93.32;101287.47;5055296;28;20064;-52
2023/03/29 11:12:02;;;;;;;18.85;10.32;;;;;;;12.62;92.77;101281.31;5054571;28;20025;-53
2023/03/29 11:14:52;;;;;;;19.27;10.13;;;;;;;12.67;92.73;101282.31;5055599;28;20021;-52
2023/03/29 11:17:57;;;;;;;18.70;10.55;;;;;;;12.75;92.21;101287.72;5054661;28;20075;-53
2023/03/29 11:20:40;;;;;;;16.20;9.52;;;;;;;12.85;92.31;101277.63;5054994;28;20064;-51
2023/03/29 11:23:29;;;;;;;18.23;9.65;;;;;;;12.78;90.57;101277.44;5054747;28;20021;-52
2023/03/29 11:26:16;;;;;;;19.38;9.27;;;;;;;12.85;90.08;101274.19;5053734;28;20484;-53
2023/03/29 11:29:29;;;;;;;16.40;9.77;;;;;;;12.97;89.87;101276.22;5055018;28;20025;-51
2023/03/29 11:32:13;;;;;;;16.00;9.52;;;;;;;12.83;89.34;101276.75;5041033;28;20044;-52
2023/03/29 11:35:02;;;;;;;14.93;8.68;;;;;;;12.84;90.21;101293.13;5054784;28;20025;-52
2023/03/29 11:37:45;;;;;;;17.05;9.13;;;;;;;12.71;90.67;101297.09;5051306;28;20037;-52